createdAt,value
2023-03-02T00:03:53.800Z,15.35
2023-03-02T00:06:20.503Z,12.95
2023-03-02T00:08:47.401Z,13.38
2023-03-02T00:11:15.499Z,13.57
2023-03-02T00:13:43.047Z,16.40
2023-03-02T00:16:09.788Z,14.85
2023-03-02T00:18:36.272Z,15.52
2023-03-02T00:21:02.833Z,15.15
2023-03-02T00:23:29.582Z,13.90
2023-03-02T00:25:56.034Z,15.75
2023-03-02T00:28:22.596Z,16.08
2023-03-02T00:30:49.168Z,10.57
2023-03-02T00:33:16.012Z,16.95
2023-03-02T00:35:42.564Z,12.57
2023-03-02T00:38:09.119Z,14.60
2023-03-02T00:40:36.122Z,11.65
2023-03-02T00:43:02.733Z,15.10
2023-03-02T00:45:29.349Z,16.23
2023-03-02T00:47:55.851Z,14.13
2023-03-02T00:50:22.297Z,15.57
2023-03-02T00:52:48.842Z,14.80
2023-03-02T00:55:15.358Z,14.57
2023-03-02T00:57:41.786Z,17.13
2023-03-02T01:00:09.086Z,16.15
2023-03-02T01:02:35.660Z,15.02
2023-03-02T01:05:02.448Z,15.15
2023-03-02T01:07:28.997Z,12.95
2023-03-02T01:09:55.529Z,16.15
2023-03-02T01:12:21.996Z,15.20
2023-03-02T01:14:50.863Z,15.95
2023-03-02T01:17:17.451Z,13.93
2023-03-02T01:19:43.978Z,15.38
2023-03-02T01:22:10.832Z,17.20
2023-03-02T01:24:37.588Z,17.42
2023-03-02T01:27:04.153Z,16.60
2023-03-02T01:29:30.608Z,18.00
2023-03-02T01:31:57.216Z,13.43
2023-03-02T01:34:24.065Z,15.50
2023-03-02T01:36:50.536Z,15.07
2023-03-02T01:39:17.363Z,15.98
2023-03-02T01:41:46.201Z,17.10
2023-03-02T01:44:36.812Z,14.95
2023-03-02T01:47:23.535Z,15.82
2023-03-02T01:49:58.965Z,15.00
2023-03-02T01:52:26.741Z,16.17
2023-03-02T01:54:58.963Z,15.05
2023-03-02T01:57:30.592Z,15.68
2023-03-02T02:00:08.362Z,14.75
2023-03-02T02:02:36.335Z,13.60
2023-03-02T02:05:04.203Z,15.35
2023-03-02T02:07:31.350Z,15.38
2023-03-02T02:09:58.189Z,15.73
2023-03-02T02:12:24.713Z,16.10
2023-03-02T02:14:54.003Z,16.38
2023-03-02T02:17:20.705Z,15.32
2023-03-02T02:20:09.111Z,15.70
2023-03-02T02:23:17.241Z,14.65
2023-03-02T02:25:53.121Z,15.60
2023-03-02T02:28:28.737Z,15.55
2023-03-02T02:31:21.054Z,15.85
2023-03-02T02:33:52.901Z,16.25
2023-03-02T02:36:25.243Z,14.40
2023-03-02T02:38:56.487Z,14.20
2023-03-02T02:41:28.745Z,13.55
2023-03-02T02:43:56.167Z,14.88
2023-03-02T02:46:23.588Z,15.80
2023-03-02T02:48:50.275Z,15.68
2023-03-02T02:51:22.760Z,11.38
2023-03-02T02:54:00.042Z,14.43
2023-03-02T02:56:33.787Z,12.23
2023-03-02T02:59:23.459Z,15.38
2023-03-02T03:01:51.313Z,15.98
2023-03-02T03:04:22.360Z,13.20
2023-03-02T03:06:53.009Z,12.25
2023-03-02T03:09:20.156Z,14.77
2023-03-02T03:11:50.358Z,13.60
2023-03-02T03:14:20.065Z,16.73
2023-03-02T03:16:48.785Z,13.98
2023-03-02T03:19:22.783Z,14.40
2023-03-02T03:21:53.256Z,13.90
2023-03-02T03:24:22.547Z,14.48
2023-03-02T03:26:49.566Z,14.38
2023-03-02T03:29:17.235Z,14.68
2023-03-02T03:31:43.764Z,14.27
2023-03-02T03:34:12.823Z,14.65
2023-03-02T03:36:39.478Z,13.27
2023-03-02T03:39:10.637Z,14.93
2023-03-02T03:41:37.683Z,14.70
2023-03-02T03:44:04.888Z,13.55
2023-03-02T03:46:32.346Z,10.90
2023-03-02T03:48:59.059Z,14.23
2023-03-02T03:51:26.178Z,13.18
2023-03-02T03:54:02.402Z,13.80
2023-03-02T03:56:31.809Z,12.30
2023-03-02T03:59:06.833Z,13.82
2023-03-02T04:01:35.154Z,12.73
2023-03-02T04:04:03.214Z,13.55
2023-03-02T04:06:29.857Z,13.68
2023-03-02T04:08:56.525Z,12.45
2023-03-02T04:11:23.105Z,14.48
2023-03-02T04:13:49.665Z,12.85
2023-03-02T04:16:16.882Z,13.32
2023-03-02T04:18:43.313Z,13.95
2023-03-02T04:21:09.714Z,13.52
2023-03-02T04:23:36.325Z,14.05
2023-03-02T04:26:05.137Z,12.52
2023-03-02T04:28:32.664Z,13.95
2023-03-02T04:30:59.289Z,10.57
2023-03-02T04:33:25.909Z,12.68
2023-03-02T04:35:54.612Z,12.45
2023-03-02T04:38:21.683Z,13.48
2023-03-02T04:40:48.167Z,12.45
2023-03-02T04:43:14.852Z,12.48
2023-03-02T04:45:41.554Z,14.07
2023-03-02T04:48:08.340Z,13.82
2023-03-02T04:50:34.885Z,13.98
2023-03-02T04:53:01.751Z,13.52
2023-03-02T04:55:28.362Z,13.65
2023-03-02T04:57:54.847Z,12.73
2023-03-02T05:00:21.642Z,12.70
2023-03-02T05:02:48.172Z,12.90
2023-03-02T05:05:33.463Z,10.65
2023-03-02T05:08:00.315Z,11.85
2023-03-02T05:10:28.594Z,12.05
2023-03-02T05:12:58.500Z,12.73
2023-03-02T05:15:30.269Z,11.15
2023-03-02T05:17:57.124Z,11.57
2023-03-02T05:20:27.838Z,10.95
2023-03-02T05:22:55.723Z,13.32
2023-03-02T05:25:22.682Z,13.23
2023-03-02T05:27:49.627Z,12.80
2023-03-02T05:30:16.729Z,12.23
2023-03-02T05:32:43.215Z,13.25
2023-03-02T05:35:09.892Z,12.82
2023-03-02T05:37:36.467Z,13.15
2023-03-02T05:40:03.456Z,12.00
2023-03-02T05:42:29.896Z,12.15
2023-03-02T05:44:56.614Z,12.70
2023-03-02T05:47:23.055Z,12.85
2023-03-02T05:49:49.467Z,12.38
2023-03-02T05:52:15.919Z,12.93
2023-03-02T05:54:42.479Z,13.48
2023-03-02T05:57:08.941Z,13.55
2023-03-02T05:59:35.505Z,13.38
2023-03-02T06:02:02.508Z,12.05
2023-03-02T06:04:29.190Z,11.82
2023-03-02T06:06:55.645Z,13.07
2023-03-02T06:09:22.390Z,13.27
2023-03-02T06:11:48.934Z,11.40
2023-03-02T06:14:15.650Z,12.77
2023-03-02T06:16:42.569Z,14.27
2023-03-02T06:19:09.122Z,12.63
2023-03-02T06:21:35.601Z,13.88
2023-03-02T06:24:02.422Z,14.02
2023-03-02T06:26:28.932Z,11.57
2023-03-02T06:28:55.425Z,13.75
2023-03-02T06:31:22.291Z,13.43
2023-03-02T06:33:49.718Z,13.20
2023-03-02T06:36:17.035Z,11.57
2023-03-02T06:38:43.786Z,11.88
2023-03-02T06:41:10.280Z,13.15
2023-03-02T06:43:36.808Z,14.18
2023-03-02T06:46:04.160Z,12.85
2023-03-02T06:48:30.684Z,13.00
2023-03-02T06:50:58.041Z,13.75
2023-03-02T06:53:24.570Z,13.77
2023-03-02T06:55:51.736Z,13.10
2023-03-02T06:58:18.308Z,12.23
2023-03-02T07:00:44.744Z,12.52
2023-03-02T07:03:11.460Z,12.95
2023-03-02T07:05:38.088Z,14.43
2023-03-02T07:08:04.825Z,14.55
2023-03-02T07:10:31.466Z,13.55
2023-03-02T07:12:58.125Z,14.98
2023-03-02T07:15:25.447Z,13.85
2023-03-02T07:17:52.057Z,13.75
2023-03-02T07:20:19.243Z,12.07
2023-03-02T07:22:46.254Z,12.10
2023-03-02T07:25:12.780Z,13.48
2023-03-02T07:27:40.364Z,13.88
2023-03-02T07:30:08.256Z,13.13
2023-03-02T07:32:34.787Z,13.38
2023-03-02T07:35:01.332Z,12.40
2023-03-02T07:37:27.857Z,12.75
2023-03-02T07:39:54.434Z,12.60
2023-03-02T07:42:21.064Z,7.90
2023-03-02T07:44:47.948Z,14.15
2023-03-02T07:47:14.629Z,12.98
2023-03-02T07:49:41.222Z,11.48
2023-03-02T07:52:07.755Z,12.55
2023-03-02T07:54:34.287Z,14.05
2023-03-02T07:57:00.840Z,11.43
2023-03-02T07:59:28.459Z,13.93
2023-03-02T08:01:56.378Z,12.90
2023-03-02T08:04:23.940Z,13.63
2023-03-02T08:06:50.711Z,10.93
2023-03-02T08:09:17.308Z,11.88
2023-03-02T08:11:44.919Z,9.73
2023-03-02T08:14:11.670Z,12.85
2023-03-02T08:16:39.574Z,11.45
2023-03-02T08:19:06.928Z,11.63
2023-03-02T08:21:33.890Z,11.57
2023-03-02T08:24:00.967Z,10.73
2023-03-02T08:26:27.591Z,12.32
2023-03-02T08:28:54.212Z,11.32
2023-03-02T08:31:20.935Z,10.25
2023-03-02T08:33:47.644Z,11.18
2023-03-02T08:36:17.487Z,11.32
2023-03-02T08:38:45.378Z,9.80
2023-03-02T08:41:15.167Z,12.25
2023-03-02T08:43:42.421Z,8.25
2023-03-02T08:46:11.459Z,9.13
2023-03-02T08:48:38.082Z,11.38
2023-03-02T08:51:07.917Z,10.43
2023-03-02T08:53:38.407Z,12.23
2023-03-02T08:56:07.438Z,10.75
2023-03-02T08:58:34.013Z,10.45
2023-03-02T09:01:00.586Z,11.18
2023-03-02T09:03:27.314Z,12.13
2023-03-02T09:05:54.669Z,10.00
2023-03-02T09:08:21.167Z,9.50
2023-03-02T09:10:47.610Z,11.32
2023-03-02T09:13:14.322Z,10.18
2023-03-02T09:15:40.890Z,11.60
2023-03-02T09:18:07.379Z,11.15
2023-03-02T09:20:34.777Z,11.52
2023-03-02T09:23:01.394Z,11.07
2023-03-02T09:25:27.845Z,10.50
2023-03-02T09:27:54.371Z,11.77
2023-03-02T09:30:20.978Z,9.65
2023-03-02T09:32:49.025Z,12.40
2023-03-02T09:35:15.891Z,10.20
2023-03-02T09:37:44.368Z,11.32
2023-03-02T09:40:21.291Z,10.75
2023-03-02T09:43:27.723Z,9.52
2023-03-02T09:46:12.513Z,11.93
2023-03-02T09:49:22.624Z,12.07
2023-03-02T09:52:11.794Z,9.80
2023-03-02T09:54:40.125Z,9.57
2023-03-02T09:57:21.958Z,10.23
2023-03-02T10:00:06.799Z,12.02
2023-03-02T10:02:54.334Z,9.73
2023-03-02T10:05:31.644Z,10.32
2023-03-02T10:07:59.461Z,10.70
2023-03-02T10:10:37.010Z,11.05
2023-03-02T10:16:19.350Z,10.23
2023-03-02T10:18:51.936Z,9.95
2023-03-02T10:21:29.917Z,9.70
2023-03-02T10:24:12.687Z,8.60
2023-03-02T10:26:44.308Z,9.48
2023-03-02T10:29:23.356Z,8.38
2023-03-02T10:31:55.618Z,8.95
2023-03-02T10:34:27.092Z,9.75
2023-03-02T10:36:53.506Z,9.00
2023-03-02T10:39:19.917Z,10.00
2023-03-02T10:42:03.923Z,8.57
2023-03-02T10:44:44.335Z,9.25
2023-03-02T10:47:21.074Z,9.13
2023-03-02T10:49:48.255Z,8.52
2023-03-02T10:52:17.278Z,8.95
2023-03-02T10:54:44.059Z,8.32
2023-03-02T10:57:30.872Z,8.38
2023-03-02T11:00:04.610Z,8.40
2023-03-02T11:02:35.019Z,8.68
2023-03-02T11:05:27.818Z,7.65
2023-03-02T11:08:22.110Z,8.57
2023-03-02T11:11:01.462Z,6.80
2023-03-02T11:13:28.646Z,6.65
2023-03-02T11:16:03.717Z,7.78
2023-03-02T11:18:34.512Z,8.38
2023-03-02T11:21:15.994Z,7.47
2023-03-02T11:23:54.713Z,8.60
2023-03-02T11:26:25.685Z,8.48
2023-03-02T11:29:13.968Z,7.80
2023-03-02T11:32:05.443Z,6.53
2023-03-02T11:34:53.597Z,7.05
2023-03-02T11:37:23.217Z,7.20
2023-03-02T11:39:55.453Z,6.50
2023-03-02T11:42:31.180Z,5.38
2023-03-02T11:45:02.549Z,7.57
2023-03-02T11:47:32.436Z,6.97
2023-03-02T11:50:05.264Z,7.22
2023-03-02T11:52:36.942Z,6.63
2023-03-02T11:55:17.308Z,6.05
2023-03-02T11:57:50.306Z,5.80
2023-03-02T12:00:41.377Z,6.28
2023-03-02T12:03:19.442Z,6.40
2023-03-02T12:06:15.325Z,6.22
2023-03-02T12:08:44.780Z,7.78
2023-03-02T12:11:17.012Z,8.02
2023-03-02T12:13:45.918Z,7.00
2023-03-02T12:16:21.599Z,7.25
2023-03-02T12:18:49.821Z,6.10
2023-03-02T12:21:19.927Z,5.63
2023-03-02T12:23:49.931Z,5.53
2023-03-02T12:26:19.365Z,6.22
2023-03-02T12:29:15.241Z,5.85
2023-03-02T12:34:33.605Z,5.82
2023-03-02T12:37:06.389Z,5.32
2023-03-02T12:39:51.309Z,5.15
2023-03-02T12:42:41.533Z,4.93
2023-03-02T12:45:26.676Z,5.63
2023-03-02T12:48:02.407Z,5.68
2023-03-02T12:50:33.415Z,6.47
2023-03-02T12:53:07.449Z,6.25
2023-03-02T12:55:34.453Z,6.75
2023-03-02T12:58:01.783Z,6.28
2023-03-02T13:00:32.040Z,4.68
2023-03-02T13:03:07.193Z,5.18
2023-03-02T13:05:35.425Z,5.70
2023-03-02T13:08:09.421Z,5.32
2023-03-02T13:10:40.213Z,5.07
2023-03-02T13:15:52.843Z,4.07
2023-03-02T13:18:23.699Z,4.57
2023-03-02T13:23:19.211Z,4.13
2023-03-02T13:25:48.778Z,5.47
2023-03-02T13:28:27.748Z,6.65
2023-03-02T13:31:21.871Z,6.68
2023-03-02T13:33:52.610Z,7.25
2023-03-02T13:36:40.074Z,6.25
2023-03-02T13:39:17.908Z,8.13
2023-03-02T13:41:53.023Z,8.13
2023-03-02T13:44:23.177Z,8.57
2023-03-02T13:46:49.813Z,8.35
2023-03-02T13:49:30.084Z,6.85
2023-03-02T13:52:15.900Z,8.55
2023-03-02T13:54:45.389Z,7.40
2023-03-02T13:57:30.819Z,7.10
2023-03-02T13:59:59.158Z,7.78
2023-03-02T14:02:28.247Z,6.78
2023-03-02T14:04:56.811Z,7.82
2023-03-02T14:07:23.393Z,7.00
2023-03-02T14:09:50.582Z,7.28
2023-03-02T14:12:30.549Z,8.48
2023-03-02T14:14:59.654Z,8.07
2023-03-02T14:17:26.439Z,7.90
2023-03-02T14:19:53.746Z,8.30
2023-03-02T14:22:21.980Z,8.15
2023-03-02T14:24:49.215Z,8.10
2023-03-02T14:27:16.715Z,7.47
2023-03-02T14:29:45.265Z,8.23
2023-03-02T14:32:14.401Z,7.15
2023-03-02T14:34:42.000Z,7.50
2023-03-02T14:37:14.834Z,7.68
2023-03-02T14:39:45.580Z,7.15
2023-03-02T14:42:15.552Z,8.20
2023-03-02T14:44:43.674Z,7.78
2023-03-02T14:47:10.527Z,7.60
2023-03-02T14:49:37.891Z,8.52
2023-03-02T14:52:12.554Z,8.13
2023-03-02T14:54:46.202Z,9.18
2023-03-02T14:57:19.342Z,7.32
2023-03-02T14:59:45.895Z,6.88
2023-03-02T15:02:24.279Z,7.50
2023-03-02T15:04:56.151Z,6.97
2023-03-02T15:07:25.056Z,9.02
2023-03-02T15:09:51.462Z,6.57
2023-03-02T15:12:17.940Z,6.80
2023-03-02T15:14:44.451Z,7.43
2023-03-02T15:17:11.168Z,6.93
2023-03-02T15:19:37.655Z,6.53
2023-03-02T15:22:04.675Z,8.07
2023-03-02T15:24:33.204Z,7.78
2023-03-02T15:27:00.438Z,7.65
2023-03-02T15:29:26.958Z,6.75
2023-03-02T15:31:53.843Z,8.32
2023-03-02T15:34:20.911Z,8.88
2023-03-02T15:36:47.496Z,9.18
2023-03-02T15:39:14.747Z,8.98
2023-03-02T15:41:44.344Z,8.55
2023-03-02T15:44:23.083Z,9.60
2023-03-02T15:47:00.399Z,8.43
2023-03-02T15:49:29.478Z,7.28
2023-03-02T15:51:59.320Z,8.40
2023-03-02T15:54:28.641Z,8.02
2023-03-02T15:56:55.561Z,9.07
2023-03-02T15:59:25.426Z,7.82
2023-03-02T16:01:52.344Z,8.38
2023-03-02T16:04:19.300Z,7.43
2023-03-02T16:06:46.037Z,7.55
2023-03-02T16:09:12.600Z,7.57
2023-03-02T16:11:39.127Z,5.78
2023-03-02T16:14:07.141Z,5.63
2023-03-02T16:16:33.866Z,7.63
2023-03-02T16:19:01.274Z,7.40
2023-03-02T16:21:28.913Z,7.70
2023-03-02T16:24:03.502Z,7.90
2023-03-02T16:26:31.499Z,7.43
2023-03-02T16:28:58.578Z,8.60
2023-03-02T16:31:28.144Z,8.45
2023-03-02T16:33:56.337Z,8.27
2023-03-02T16:36:23.827Z,8.85
2023-03-02T16:38:50.400Z,7.82
2023-03-02T16:41:21.969Z,8.35
2023-03-02T16:43:54.375Z,8.85
2023-03-02T16:46:22.990Z,9.68
2023-03-02T16:48:50.163Z,6.95
2023-03-02T16:51:18.636Z,10.35
2023-03-02T16:53:45.964Z,9.52
2023-03-02T16:56:13.314Z,9.80
2023-03-02T16:58:41.498Z,9.15
2023-03-02T17:01:11.051Z,7.30
2023-03-02T17:03:37.834Z,7.55
2023-03-02T17:06:09.360Z,9.88
2023-03-02T17:08:36.631Z,9.30
2023-03-02T17:11:05.632Z,8.80
2023-03-02T17:13:32.640Z,9.68
2023-03-02T17:15:59.376Z,9.13
2023-03-02T17:18:29.222Z,9.37
2023-03-02T17:20:58.058Z,9.90
2023-03-02T17:23:27.302Z,8.32
2023-03-02T17:25:55.050Z,8.40
2023-03-02T17:28:21.551Z,7.88
2023-03-02T17:30:48.171Z,9.32
2023-03-02T17:33:15.055Z,8.63
2023-03-02T17:35:42.631Z,8.43
2023-03-02T17:38:09.244Z,9.70
2023-03-02T17:40:35.893Z,9.35
2023-03-02T17:43:02.457Z,9.85
2023-03-02T17:45:30.000Z,8.25
2023-03-02T17:47:58.499Z,8.10
2023-03-02T17:50:26.386Z,9.30
2023-03-02T17:52:54.219Z,7.88
2023-03-02T17:55:21.134Z,9.02
2023-03-02T17:57:47.807Z,7.28
2023-03-02T18:00:20.284Z,7.60
2023-03-02T18:02:47.015Z,7.45
2023-03-02T18:05:13.830Z,7.80
2023-03-02T18:07:40.491Z,8.57
2023-03-02T18:10:08.321Z,6.90
2023-03-02T18:12:35.068Z,7.63
2023-03-02T18:15:02.015Z,8.02
2023-03-02T18:17:30.325Z,7.68
2023-03-02T18:19:56.929Z,7.65
2023-03-02T18:22:23.516Z,8.13
2023-03-02T18:24:51.952Z,8.48
2023-03-02T18:27:18.813Z,8.13
2023-03-02T18:29:45.489Z,8.07
2023-03-02T18:32:12.637Z,8.07
2023-03-02T18:34:39.259Z,8.13
2023-03-02T18:37:05.893Z,5.60
2023-03-02T18:39:32.875Z,7.10
2023-03-02T18:41:59.929Z,8.35
2023-03-02T18:44:28.266Z,7.22
2023-03-02T18:46:56.069Z,6.95
2023-03-02T18:49:23.989Z,6.10
2023-03-02T18:51:50.729Z,6.28
2023-03-02T18:54:17.390Z,6.68
2023-03-02T18:56:44.139Z,7.18
2023-03-02T18:59:11.284Z,6.43
2023-03-02T19:01:38.042Z,6.22
2023-03-02T19:04:05.826Z,6.35
2023-03-02T19:06:33.464Z,6.90
2023-03-02T19:09:00.083Z,6.75
2023-03-02T19:11:27.016Z,6.80
2023-03-02T19:13:53.603Z,6.63
2023-03-02T19:16:20.629Z,7.32
2023-03-02T19:18:48.758Z,7.13
2023-03-02T19:21:15.549Z,7.10
2023-03-02T19:23:42.928Z,8.65
2023-03-02T19:26:10.456Z,7.60
2023-03-02T19:28:38.543Z,7.30
2023-03-02T19:31:09.405Z,7.90
2023-03-02T19:33:36.682Z,8.50
2023-03-02T19:36:06.783Z,7.57
2023-03-02T19:38:33.451Z,7.53
2023-03-02T19:41:02.143Z,7.78
2023-03-02T19:43:28.800Z,8.05
2023-03-02T19:45:55.413Z,6.95
2023-03-02T19:48:22.143Z,7.28
2023-03-02T19:50:48.946Z,7.60
2023-03-02T19:53:17.196Z,8.65
2023-03-02T19:55:44.496Z,8.43
2023-03-02T19:58:17.244Z,8.27
2023-03-02T20:00:45.335Z,6.03
2023-03-02T20:03:12.711Z,8.18
2023-03-02T20:05:39.676Z,8.20
2023-03-02T20:08:07.785Z,8.18
2023-03-02T20:10:42.097Z,7.80
2023-03-02T20:13:09.435Z,8.77
2023-03-02T20:15:38.840Z,7.63
2023-03-02T20:18:12.932Z,7.00
2023-03-02T20:20:39.702Z,8.25
2023-03-02T20:23:06.371Z,7.53
2023-03-02T20:25:34.265Z,8.27
2023-03-02T20:28:05.576Z,8.90
2023-03-02T20:33:06.143Z,7.63
2023-03-02T20:35:35.239Z,9.30
2023-03-02T20:38:05.555Z,9.07
2023-03-02T20:40:33.585Z,9.07
2023-03-02T20:43:00.346Z,10.32
2023-03-02T20:45:27.134Z,8.75
2023-03-02T20:47:56.210Z,9.43
2023-03-02T20:50:26.598Z,10.23
2023-03-02T20:52:55.473Z,8.95
2023-03-02T20:55:22.044Z,10.10
2023-03-02T20:57:48.742Z,8.73
2023-03-02T21:00:21.215Z,12.18
2023-03-02T21:02:48.798Z,10.57
2023-03-02T21:05:17.393Z,10.77
2023-03-02T21:07:44.526Z,11.10
2023-03-02T21:10:15.586Z,11.90
2023-03-02T21:12:43.135Z,11.32
2023-03-02T21:15:10.634Z,12.25
2023-03-02T21:17:37.283Z,12.80
2023-03-02T21:20:05.704Z,12.60
2023-03-02T21:22:32.988Z,10.80
2023-03-02T21:24:59.694Z,11.65
2023-03-02T21:27:26.290Z,12.05
2023-03-02T21:29:52.902Z,12.80
2023-03-02T21:32:19.548Z,12.18
2023-03-02T21:34:46.084Z,13.68
2023-03-02T21:37:12.709Z,11.02
2023-03-02T21:39:39.365Z,14.05
2023-03-02T21:42:06.139Z,12.10
2023-03-02T21:44:33.811Z,12.90
2023-03-02T21:47:00.496Z,13.63
2023-03-02T21:49:27.344Z,13.52
2023-03-02T21:51:53.940Z,13.55
2023-03-02T21:54:20.840Z,12.27
2023-03-02T21:56:47.450Z,12.45
2023-03-02T21:59:14.032Z,13.90
2023-03-02T22:01:40.777Z,14.30
2023-03-02T22:04:07.447Z,12.85
2023-03-02T22:06:35.504Z,13.90
2023-03-02T22:09:02.712Z,12.07
2023-03-02T22:11:32.878Z,10.93
2023-03-02T22:14:02.983Z,14.82
2023-03-02T22:16:36.126Z,12.98
2023-03-02T22:19:18.225Z,12.20
2023-03-02T22:21:48.184Z,12.50
2023-03-02T22:24:26.465Z,11.98
2023-03-02T22:27:05.406Z,14.00
2023-03-02T22:29:42.115Z,13.43
2023-03-02T22:32:29.478Z,11.82
2023-03-02T22:34:58.680Z,9.63
2023-03-02T22:37:30.813Z,12.77
2023-03-02T22:40:00.227Z,12.43
2023-03-02T22:42:30.378Z,11.98
2023-03-02T22:45:02.747Z,11.10
2023-03-02T22:47:29.384Z,11.82
2023-03-02T22:49:58.935Z,12.27
2023-03-02T22:52:33.471Z,11.82
2023-03-02T22:55:00.015Z,12.82
2023-03-02T22:57:30.814Z,11.98
2023-03-02T23:00:15.730Z,12.23
2023-03-02T23:02:44.439Z,11.73
2023-03-02T23:05:29.317Z,11.63
2023-03-02T23:08:20.678Z,10.77
2023-03-02T23:10:48.094Z,11.23
2023-03-02T23:13:19.102Z,9.32
2023-03-02T23:15:47.485Z,11.07
2023-03-02T23:18:22.309Z,11.23
2023-03-02T23:20:50.017Z,11.93
2023-03-02T23:23:17.667Z,11.95
2023-03-02T23:25:44.722Z,11.43
2023-03-02T23:28:14.786Z,10.90
2023-03-02T23:30:41.424Z,11.27
2023-03-02T23:33:08.372Z,10.15
2023-03-02T23:35:35.088Z,11.35
2023-03-02T23:38:01.795Z,10.27
2023-03-02T23:40:29.296Z,11.27
2023-03-02T23:42:56.229Z,9.93
2023-03-02T23:45:22.890Z,10.30
2023-03-02T23:47:49.526Z,9.32
2023-03-02T23:50:16.269Z,9.90
2023-03-02T23:52:42.810Z,9.68
2023-03-02T23:55:10.127Z,9.15
2023-03-02T23:57:36.801Z,9.38
